Time;durP1;ratioP1;P1;durP2;ratioP2;P2;SDS_P1;SDS_P2;PMS_P1;PMS_P2;Temp;Humidity;BMP_temperature;BMP_pressure;BME280_temperature;BME280_humidity;BME280_pressure;Samples;Min_cycle;Max_cycle;Signal;HPM_P1;HPM_P2
2024/02/22 00:02:07;;;;;;;13.10;8.95;;;10.20;96.70;;;;;;4913990;29;20051;-65
2024/02/22 00:04:36;;;;;;;10.75;6.97;;;10.20;96.70;;;;;;4945613;29;20051;-65
2024/02/22 00:07:06;;;;;;;8.50;6.60;;;10.10;96.70;;;;;;4944942;29;20056;-64
2024/02/22 00:09:35;;;;;;;9.05;6.80;;;10.20;96.70;;;;;;4929665;29;20146;-65
2024/02/22 00:12:05;;;;;;;9.65;6.25;;;10.20;96.70;;;;;;4945740;29;20154;-65
2024/02/22 00:14:37;;;;;;;10.70;6.53;;;10.10;96.70;;;;;;4944955;29;20310;-65
2024/02/22 00:17:06;;;;;;;11.90;6.05;;;10.10;96.70;;;;;;4913945;29;20143;-65
2024/02/22 00:19:36;;;;;;;9.68;6.07;;;10.10;96.70;;;;;;4944342;29;20555;-65
2024/02/22 00:22:06;;;;;;;10.75;6.45;;;10.00;96.70;;;;;;4938566;29;20110;-65
2024/02/22 00:24:36;;;;;;;8.55;6.00;;;10.00;96.70;;;;;;4945219;29;20533;-65
2024/02/22 00:27:05;;;;;;;8.63;6.10;;;10.00;96.70;;;;;;4913725;29;20058;-65
2024/02/22 00:29:36;;;;;;;8.48;6.53;;;9.90;96.70;;;;;;4945407;29;20098;-65
2024/02/22 00:32:05;;;;;;;8.05;6.30;;;9.90;96.70;;;;;;4913292;29;20107;-65
2024/02/22 00:34:36;;;;;;;9.00;5.80;;;9.90;96.70;;;;;;4920958;29;20139;-65
2024/02/22 00:37:04;;;;;;;8.25;6.13;;;9.90;96.70;;;;;;4944556;29;20057;-65
2024/02/22 00:39:33;;;;;;;7.40;5.80;;;9.80;96.70;;;;;;4913137;29;20073;-66
2024/02/22 00:42:02;;;;;;;10.93;6.18;;;9.90;96.70;;;;;;4929148;29;20153;-65
2024/02/22 00:44:31;;;;;;;9.00;5.90;;;9.80;96.70;;;;;;4944560;29;20051;-65
2024/02/22 00:47:02;;;;;;;10.75;6.95;;;9.90;96.70;;;;;;4943598;29;20051;-65
2024/02/22 00:49:31;;;;;;;9.02;6.07;;;9.90;96.70;;;;;;4913264;29;20058;-65
2024/02/22 00:52:00;;;;;;;10.90;6.65;;;9.80;96.70;;;;;;4912695;29;20055;-65
2024/02/22 00:54:29;;;;;;;8.75;6.32;;;9.80;96.70;;;;;;4944242;29;20056;-65
2024/02/22 00:56:58;;;;;;;8.07;5.88;;;9.80;96.70;;;;;;4945796;28;20048;-65
2024/02/22 00:59:32;;;;;;;10.93;6.18;;;9.70;96.70;;;;;;4912999;29;20051;-65
2024/02/22 01:02:05;;;;;;;8.93;6.22;;;9.70;96.70;;;;;;4914055;29;20114;-65
2024/02/22 01:04:34;;;;;;;8.27;6.13;;;9.70;96.70;;;;;;4929691;29;20150;-65
2024/02/22 01:07:02;;;;;;;7.35;5.15;;;9.70;96.70;;;;;;4927924;29;20039;-65
2024/02/22 01:09:31;;;;;;;11.52;5.60;;;9.60;96.70;;;;;;4944173;29;20063;-65
2024/02/22 01:12:01;;;;;;;8.88;5.28;;;9.60;96.70;;;;;;4927976;29;20046;-65
2024/02/22 01:14:30;;;;;;;6.93;5.10;;;9.60;96.70;;;;;;4928764;29;20059;-65
2024/02/22 01:17:00;;;;;;;8.80;5.30;;;9.60;96.70;;;;;;4944330;29;20051;-65
2024/02/22 01:19:31;;;;;;;7.72;5.18;;;9.60;96.70;;;;;;4928720;29;20431;-65
2024/02/22 01:22:00;;;;;;;7.07;5.13;;;9.60;96.70;;;;;;4943394;29;20066;-65
2024/02/22 01:24:29;;;;;;;7.97;4.95;;;9.60;96.70;;;;;;4926854;29;20048;-65
2024/02/22 01:26:58;;;;;;;5.72;4.35;;;9.50;96.70;;;;;;4918903;29;20146;-65
2024/02/22 01:29:27;;;;;;;6.03;4.82;;;9.50;96.70;;;;;;4929022;29;20051;-65
2024/02/22 01:31:58;;;;;;;8.35;4.63;;;9.50;96.70;;;;;;4929274;29;20062;-65
2024/02/22 01:34:27;;;;;;;5.53;4.00;;;9.40;96.70;;;;;;4944008;29;20533;-65
2024/02/22 01:36:57;;;;;;;5.68;3.80;;;9.50;96.70;;;;;;4942105;29;20055;-65
2024/02/22 01:39:26;;;;;;;5.38;3.53;;;9.50;96.70;;;;;;4913895;29;20056;-66
2024/02/22 01:41:56;;;;;;;3.38;2.85;;;9.40;96.70;;;;;;4925867;29;20060;-66
2024/02/22 01:44:30;;;;;;;3.92;2.70;;;9.40;96.70;;;;;;4933418;29;20059;-65
2024/02/22 01:46:59;;;;;;;3.00;2.70;;;9.40;96.70;;;;;;4943272;29;20079;-66
2024/02/22 01:49:29;;;;;;;3.97;2.83;;;9.50;96.70;;;;;;4920751;29;20413;-65
2024/02/22 01:52:03;;;;;;;4.82;3.25;;;9.50;96.70;;;;;;4928052;29;20066;-65
2024/02/22 01:54:32;;;;;;;4.72;2.95;;;9.50;96.70;;;;;;4912075;29;20063;-65
2024/02/22 01:57:05;;;;;;;5.78;2.80;;;9.50;96.70;;;;;;4928213;29;20052;-65
2024/02/22 01:59:35;;;;;;;4.30;2.97;;;9.50;96.70;;;;;;4927964;29;20059;-66
2024/02/22 02:02:04;;;;;;;4.05;2.95;;;9.40;96.70;;;;;;4944150;29;20052;-65
2024/02/22 02:04:34;;;;;;;4.40;3.00;;;9.40;96.70;;;;;;4913651;29;20144;-66
2024/02/22 02:07:06;;;;;;;3.72;2.85;;;9.30;96.70;;;;;;4915557;29;20055;-66
2024/02/22 02:09:35;;;;;;;6.35;2.97;;;9.40;96.70;;;;;;4947323;29;20063;-65
2024/02/22 02:12:05;;;;;;;6.00;2.83;;;9.40;96.70;;;;;;4931907;29;20056;-65
2024/02/22 02:14:34;;;;;;;5.00;2.63;;;9.40;96.70;;;;;;4916073;29;20306;-65
2024/02/22 02:17:03;;;;;;;4.93;2.88;;;9.30;96.70;;;;;;4931582;29;20051;-66
2024/02/22 02:19:33;;;;;;;6.50;3.17;;;9.30;96.70;;;;;;4934238;29;20058;-66
2024/02/22 02:22:11;;;;;;;5.20;2.78;;;9.40;96.70;;;;;;4916453;29;20063;-66
2024/02/22 02:24:45;;;;;;;3.65;2.72;;;9.30;96.70;;;;;;4921870;29;20066;-65
2024/02/22 02:27:17;;;;;;;4.38;2.70;;;9.30;96.70;;;;;;4946845;29;20075;-65
2024/02/22 02:29:46;;;;;;;3.53;2.42;;;9.30;96.70;;;;;;4931389;29;20056;-64
2024/02/22 02:32:15;;;;;;;5.40;2.83;;;9.30;96.70;;;;;;4930806;29;20052;-65
2024/02/22 02:34:57;;;;;;;4.40;2.30;;;9.30;96.70;;;;;;4944437;29;20529;-65
2024/02/22 02:37:26;;;;;;;4.93;2.75;;;9.30;96.70;;;;;;4946503;29;20825;-65
2024/02/22 02:39:55;;;;;;;3.88;2.70;;;9.10;96.70;;;;;;4945871;29;20130;-65
2024/02/22 02:42:25;;;;;;;3.85;2.22;;;9.20;96.70;;;;;;4927529;29;20083;-65
2024/02/22 02:44:53;;;;;;;4.55;3.08;;;9.20;96.70;;;;;;4946019;29;20075;-65
2024/02/22 02:47:22;;;;;;;3.90;2.55;;;9.20;96.70;;;;;;4930240;29;20923;-65
2024/02/22 02:49:50;;;;;;;3.45;2.65;;;9.20;96.70;;;;;;4925351;29;20063;-65
2024/02/22 02:52:19;;;;;;;3.63;2.42;;;9.10;96.70;;;;;;4945726;29;20047;-65
2024/02/22 02:54:49;;;;;;;3.92;2.72;;;9.00;96.70;;;;;;4952300;28;20055;-65
2024/02/22 02:57:18;;;;;;;3.75;2.70;;;9.00;96.70;;;;;;4921451;29;20044;-65
2024/02/22 02:59:50;;;;;;;3.83;2.63;;;9.00;96.70;;;;;;4946987;29;20063;-65
2024/02/22 03:02:21;;;;;;;6.05;3.33;;;9.00;96.70;;;;;;4946518;29;20694;-65
2024/02/22 03:04:51;;;;;;;8.15;3.50;;;9.00;96.70;;;;;;4942674;29;20164;-65
2024/02/22 03:07:21;;;;;;;5.55;3.63;;;9.00;96.70;;;;;;4913927;29;20460;-65
2024/02/22 03:09:50;;;;;;;4.65;3.35;;;9.00;96.70;;;;;;4946555;29;20110;-65
2024/02/22 03:12:19;;;;;;;5.32;3.80;;;9.00;96.70;;;;;;4930313;29;20064;-65
2024/02/22 03:14:54;;;;;;;6.57;3.60;;;9.00;96.70;;;;;;4923526;29;20075;-65
2024/02/22 03:17:26;;;;;;;5.78;3.28;;;9.00;96.70;;;;;;4945827;29;20052;-65
2024/02/22 03:19:56;;;;;;;6.28;4.05;;;9.00;96.70;;;;;;4945628;29;20070;-65
2024/02/22 03:22:26;;;;;;;6.43;4.40;;;9.10;96.70;;;;;;4907001;29;20146;-65
2024/02/22 03:24:57;;;;;;;5.68;4.15;;;9.10;96.70;;;;;;4930491;29;20059;-65
2024/02/22 03:27:27;;;;;;;6.30;4.35;;;9.10;96.70;;;;;;4930713;29;20058;-65
2024/02/22 03:29:57;;;;;;;6.43;4.10;;;9.10;96.70;;;;;;4945907;29;20050;-65
2024/02/22 03:32:26;;;;;;;5.88;4.28;;;9.00;96.70;;;;;;4926655;29;20515;-65
2024/02/22 03:34:56;;;;;;;6.13;4.38;;;9.00;96.70;;;;;;4907033;29;20079;-65
2024/02/22 03:37:24;;;;;;;4.45;3.00;;;8.90;96.70;;;;;;4944366;29;20050;-65
2024/02/22 03:39:53;;;;;;;5.47;3.22;;;8.90;96.70;;;;;;4945661;29;20149;-65
2024/02/22 03:42:23;;;;;;;5.47;3.17;;;8.90;96.70;;;;;;4946071;29;20055;-65
2024/02/22 03:44:52;;;;;;;3.83;3.00;;;8.90;96.70;;;;;;4913947;29;20043;-65
2024/02/22 03:47:22;;;;;;;4.05;2.85;;;8.90;96.70;;;;;;4920848;29;20056;-65
2024/02/22 03:49:52;;;;;;;3.80;2.90;;;9.00;96.70;;;;;;4920555;29;20058;-65
2024/02/22 03:52:21;;;;;;;4.28;3.15;;;9.00;96.70;;;;;;4945596;28;20106;-65
2024/02/22 03:54:50;;;;;;;4.18;2.40;;;9.00;96.70;;;;;;4929323;29;20115;-64
2024/02/22 03:57:19;;;;;;;5.40;3.20;;;9.00;96.70;;;;;;4945101;29;20067;-65
2024/02/22 03:59:48;;;;;;;3.67;2.95;;;9.00;96.70;;;;;;4914549;29;20063;-65
2024/02/22 04:02:17;;;;;;;3.00;2.30;;;9.00;96.70;;;;;;4930391;29;20420;-65
2024/02/22 04:04:53;;;;;;;4.03;2.45;;;9.00;96.70;;;;;;4913833;29;20067;-65
2024/02/22 04:07:24;;;;;;;3.60;2.55;;;8.90;96.70;;;;;;4930271;29;20122;-65
2024/02/22 04:09:54;;;;;;;3.08;2.53;;;8.90;96.70;;;;;;4913333;29;20055;-65
2024/02/22 04:12:24;;;;;;;4.55;2.65;;;9.00;96.70;;;;;;4945135;29;20465;-65
2024/02/22 04:14:53;;;;;;;3.50;2.08;;;9.00;96.70;;;;;;4913818;29;20127;-65
2024/02/22 04:17:21;;;;;;;3.47;2.25;;;8.90;96.70;;;;;;4913753;29;20079;-65
2024/02/22 04:19:52;;;;;;;3.25;2.15;;;8.90;96.70;;;;;;4929774;29;20059;-65
2024/02/22 04:22:20;;;;;;;3.08;2.20;;;8.90;96.70;;;;;;4944967;29;20059;-65
2024/02/22 04:24:50;;;;;;;5.20;2.50;;;9.00;96.70;;;;;;4929446;29;20123;-65
2024/02/22 04:27:19;;;;;;;4.38;2.40;;;9.00;96.70;;;;;;4929128;29;20052;-64
2024/02/22 04:29:48;;;;;;;3.85;2.72;;;9.00;96.70;;;;;;4944347;29;20055;-64
2024/02/22 04:32:16;;;;;;;3.78;2.50;;;9.00;96.70;;;;;;4934292;29;20572;-65
2024/02/22 04:34:46;;;;;;;4.13;2.67;;;9.10;96.70;;;;;;4928557;29;20099;-65
2024/02/22 04:37:18;;;;;;;4.20;2.70;;;9.20;96.70;;;;;;4944169;29;20098;-65
2024/02/22 04:39:47;;;;;;;3.75;2.50;;;9.10;96.70;;;;;;4929645;29;20118;-65
2024/02/22 04:42:17;;;;;;;4.50;2.90;;;9.10;96.70;;;;;;4924109;29;20048;-65
2024/02/22 04:44:45;;;;;;;4.43;2.80;;;9.10;96.70;;;;;;4942307;29;20055;-64
2024/02/22 04:47:15;;;;;;;5.28;3.15;;;9.10;96.70;;;;;;4943206;29;20504;-65
2024/02/22 04:49:46;;;;;;;4.13;2.83;;;9.10;96.70;;;;;;4944769;29;20055;-65
2024/02/22 04:52:19;;;;;;;4.88;3.10;;;9.00;96.70;;;;;;4928547;29;20421;-65
2024/02/22 04:54:49;;;;;;;4.43;3.50;;;9.10;96.70;;;;;;4922046;29;20058;-65
2024/02/22 04:57:21;;;;;;;4.50;3.20;;;9.10;96.70;;;;;;4944479;29;20058;-65
2024/02/22 04:59:50;;;;;;;4.85;3.25;;;9.10;96.70;;;;;;4944374;29;20055;-65
2024/02/22 05:02:20;;;;;;;4.50;2.90;;;9.10;96.70;;;;;;4928656;29;20047;-65
2024/02/22 05:04:49;;;;;;;6.15;3.47;;;9.20;96.70;;;;;;4943964;29;20588;-65
2024/02/22 05:07:19;;;;;;;4.32;3.42;;;9.20;96.70;;;;;;4944189;28;20126;-65
2024/02/22 05:09:48;;;;;;;4.05;2.88;;;9.20;96.70;;;;;;4944333;29;20062;-65
2024/02/22 05:12:19;;;;;;;4.28;3.00;;;9.10;96.70;;;;;;4920628;29;20071;-65
2024/02/22 05:14:51;;;;;;;4.93;3.15;;;9.10;96.70;;;;;;4944313;29;20576;-65
2024/02/22 05:17:21;;;;;;;4.50;2.80;;;9.10;96.70;;;;;;4921522;29;20051;-65
2024/02/22 05:19:49;;;;;;;4.85;3.38;;;9.10;96.70;;;;;;4943756;29;20056;-65
2024/02/22 05:22:19;;;;;;;5.55;3.58;;;9.20;96.70;;;;;;4928319;29;20855;-65
2024/02/22 05:24:50;;;;;;;4.95;3.20;;;9.20;96.70;;;;;;4912566;29;20056;-65
2024/02/22 05:27:21;;;;;;;4.18;2.78;;;9.20;96.70;;;;;;4928709;29;20047;-65
2024/02/22 05:29:50;;;;;;;7.20;3.40;;;9.20;96.70;;;;;;4927934;29;20055;-65
2024/02/22 05:32:21;;;;;;;5.38;3.17;;;9.20;96.70;;;;;;4929627;29;20051;-65
2024/02/22 05:34:50;;;;;;;4.35;2.83;;;9.30;96.70;;;;;;4910460;29;20150;-65
2024/02/22 05:37:23;;;;;;;5.97;2.83;;;9.30;96.70;;;;;;4943401;28;20425;-65
2024/02/22 05:39:55;;;;;;;5.03;2.97;;;9.30;96.70;;;;;;4927581;29;20056;-65
2024/02/22 05:42:24;;;;;;;4.05;2.83;;;9.10;96.70;;;;;;4928960;29;20066;-64
2024/02/22 05:44:54;;;;;;;5.70;2.92;;;9.10;96.70;;;;;;4944337;29;20512;-65
2024/02/22 05:47:24;;;;;;;5.18;3.38;;;9.20;96.70;;;;;;4928232;29;20052;-65
2024/02/22 05:49:54;;;;;;;7.05;2.90;;;9.20;96.70;;;;;;4928203;29;20055;-65
2024/02/22 05:52:26;;;;;;;4.60;3.17;;;9.10;96.70;;;;;;4928382;29;20476;-65
2024/02/22 05:54:57;;;;;;;5.53;3.15;;;9.10;96.70;;;;;;4912381;29;20079;-65
2024/02/22 05:57:25;;;;;;;5.07;3.15;;;9.20;96.70;;;;;;4912102;29;20055;-65
2024/02/22 05:59:57;;;;;;;5.15;3.00;;;9.20;96.70;;;;;;4921416;29;20059;-65
2024/02/22 06:02:26;;;;;;;3.83;3.03;;;9.20;96.70;;;;;;4912141;29;20060;-65
2024/02/22 06:04:55;;;;;;;5.57;3.42;;;9.20;96.70;;;;;;4928321;29;20150;-65
2024/02/22 06:07:26;;;;;;;5.95;3.20;;;9.20;96.70;;;;;;4927810;29;20119;-65
2024/02/22 06:09:56;;;;;;;3.55;2.60;;;9.20;96.70;;;;;;4911787;29;20060;-65
2024/02/22 06:12:25;;;;;;;3.97;2.88;;;9.20;96.70;;;;;;4919940;29;20154;-65
2024/02/22 06:14:55;;;;;;;3.65;2.60;;;9.10;96.70;;;;;;4913446;29;20048;-65
2024/02/22 06:17:25;;;;;;;4.40;2.72;;;9.20;96.70;;;;;;4943755;29;20111;-65
2024/02/22 06:19:57;;;;;;;4.68;2.90;;;9.20;96.70;;;;;;4927189;29;20060;-65
2024/02/22 06:22:26;;;;;;;5.72;3.15;;;9.20;96.70;;;;;;4942964;29;20065;-65
2024/02/22 06:24:56;;;;;;;6.15;3.40;;;9.30;96.70;;;;;;4935858;29;20600;-65
2024/02/22 06:27:26;;;;;;;5.18;2.97;;;9.30;96.70;;;;;;4921076;29;20063;-65
2024/02/22 06:29:56;;;;;;;4.78;2.85;;;9.30;96.70;;;;;;4927090;29;20047;-65
2024/02/22 06:32:26;;;;;;;6.80;3.55;;;9.30;96.70;;;;;;4915253;29;20066;-65
2024/02/22 06:34:57;;;;;;;5.57;3.58;;;9.40;96.70;;;;;;4927338;29;20059;-65
2024/02/22 06:37:28;;;;;;;5.03;3.60;;;9.50;96.70;;;;;;4942732;28;20190;-65
2024/02/22 06:39:56;;;;;;;9.38;4.50;;;9.40;96.70;;;;;;4925969;29;20084;-65
2024/02/22 06:42:26;;;;;;;7.55;4.70;;;9.40;96.70;;;;;;4926149;29;20076;-65
2024/02/22 06:44:55;;;;;;;4.82;3.78;;;9.50;96.70;;;;;;4926558;29;20568;-65
2024/02/22 06:47:24;;;;;;;8.35;5.32;;;9.50;96.70;;;;;;4931540;28;20508;-65
2024/02/22 06:49:53;;;;;;;7.18;4.22;;;9.60;96.70;;;;;;4942558;29;20536;-65
2024/02/22 06:52:22;;;;;;;8.63;5.10;;;9.60;96.70;;;;;;4946278;29;20071;-65
2024/02/22 06:54:57;;;;;;;6.22;4.80;;;9.60;96.70;;;;;;4916821;29;20066;-65
2024/02/22 06:57:26;;;;;;;9.70;4.85;;;9.60;96.70;;;;;;4916628;29;20107;-65
2024/02/22 06:59:56;;;;;;;9.48;5.32;;;9.70;96.70;;;;;;4929535;29;20098;-65
2024/02/22 07:02:25;;;;;;;6.32;5.05;;;9.70;96.70;;;;;;4898380;29;20512;-65
2024/02/22 07:04:53;;;;;;;8.77;5.10;;;9.70;96.70;;;;;;4915763;29;20063;-65
2024/02/22 07:07:21;;;;;;;7.53;5.53;;;9.80;96.70;;;;;;4918425;29;20059;-65
2024/02/22 07:09:55;;;;;;;8.43;5.88;;;9.80;96.70;;;;;;4920048;29;20047;-66
2024/02/22 07:12:23;;;;;;;11.27;6.13;;;9.80;96.70;;;;;;4929494;29;20090;-65
2024/02/22 07:14:52;;;;;;;9.48;5.35;;;9.90;96.70;;;;;;4929857;29;20055;-66
2024/02/22 07:17:21;;;;;;;9.20;5.43;;;10.00;96.70;;;;;;4917281;29;20059;-66
2024/02/22 07:19:52;;;;;;;7.43;5.53;;;10.10;96.70;;;;;;4945512;29;20039;-66
2024/02/22 07:22:23;;;;;;;11.02;6.45;;;10.10;96.70;;;;;;4914708;29;20047;-66
2024/02/22 07:24:57;;;;;;;20.95;10.15;;;10.20;96.70;;;;;;4915656;29;20051;-65
2024/02/22 07:27:26;;;;;;;45.08;20.05;;;10.20;96.70;;;;;;4948190;28;20163;-66
2024/02/22 07:29:56;;;;;;;52.70;22.80;;;10.20;96.70;;;;;;4946449;29;20050;-65
2024/02/22 07:32:25;;;;;;;28.92;14.00;;;10.20;96.70;;;;;;4930088;29;20055;-66
2024/02/22 07:34:55;;;;;;;13.15;6.72;;;10.20;96.70;;;;;;4914096;29;20087;-66
2024/02/22 07:37:26;;;;;;;15.32;7.95;;;10.30;96.70;;;;;;4923224;29;21090;-66
2024/02/22 07:39:59;;;;;;;11.02;5.05;;;10.30;96.70;;;;;;4945383;29;20055;-66
2024/02/22 07:42:27;;;;;;;10.80;6.30;;;10.30;96.70;;;;;;4930361;29;20062;-66
2024/02/22 07:44:58;;;;;;;10.38;5.93;;;10.40;96.70;;;;;;4945778;29;20114;-66
2024/02/22 07:47:27;;;;;;;12.77;5.70;;;10.50;96.70;;;;;;4929896;29;20856;-66
2024/02/22 07:49:55;;;;;;;8.32;5.00;;;10.60;96.70;;;;;;4921889;29;20203;-66
2024/02/22 07:52:25;;;;;;;7.53;4.85;;;10.60;96.70;;;;;;4914464;29;20064;-66
2024/02/22 07:54:54;;;;;;;10.13;5.05;;;10.70;96.70;;;;;;4929728;29;20055;-66
2024/02/22 07:57:26;;;;;;;7.65;5.18;;;10.70;96.70;;;;;;4945637;29;20066;-66
2024/02/22 07:59:57;;;;;;;7.10;4.78;;;10.70;96.70;;;;;;4946222;29;20051;-66
2024/02/22 08:02:27;;;;;;;8.98;5.53;;;10.80;96.70;;;;;;4951059;28;21064;-66
2024/02/22 08:04:57;;;;;;;9.50;5.80;;;10.90;96.70;;;;;;4930104;29;20074;-66
2024/02/22 08:07:28;;;;;;;10.10;5.65;;;11.00;96.70;;;;;;4929418;29;20060;-66
2024/02/22 08:09:57;;;;;;;7.90;4.82;;;11.10;96.70;;;;;;4944881;29;20052;-66
2024/02/22 08:12:28;;;;;;;9.25;5.50;;;11.20;96.70;;;;;;4915575;29;20059;-66
2024/02/22 08:14:57;;;;;;;8.48;5.13;;;11.30;96.70;;;;;;4945362;29;20047;-66
2024/02/22 08:17:26;;;;;;;7.72;4.82;;;11.40;96.70;;;;;;4930573;29;20114;-66
2024/02/22 08:19:56;;;;;;;11.70;5.40;;;11.40;96.70;;;;;;4945292;29;20471;-66
2024/02/22 08:22:26;;;;;;;11.27;5.20;;;11.50;96.70;;;;;;4929677;29;20547;-66
2024/02/22 08:24:56;;;;;;;7.63;5.40;;;11.60;96.70;;;;;;4913226;29;20062;-66
2024/02/22 08:27:29;;;;;;;9.95;5.70;;;11.60;96.70;;;;;;4945246;29;20087;-66
2024/02/22 08:30:00;;;;;;;9.05;5.18;;;11.70;96.70;;;;;;4911298;29;20048;-66
2024/02/22 08:32:29;;;;;;;6.40;4.70;;;11.70;96.70;;;;;;4926687;29;20064;-66
2024/02/22 08:34:58;;;;;;;7.32;5.28;;;11.70;96.70;;;;;;4945525;29;20102;-66
2024/02/22 08:37:27;;;;;;;8.43;5.57;;;11.80;96.70;;;;;;4928843;29;20608;-66
2024/02/22 08:39:57;;;;;;;13.00;6.78;;;11.80;96.70;;;;;;4929117;29;20122;-66
2024/02/22 08:42:27;;;;;;;12.23;6.47;;;11.90;96.70;;;;;;4929454;29;20044;-66
2024/02/22 08:44:57;;;;;;;14.00;7.00;;;12.00;96.70;;;;;;4913468;29;20099;-66
2024/02/22 08:47:25;;;;;;;13.15;7.38;;;12.10;96.70;;;;;;4912032;29;20056;-66
2024/02/22 08:49:54;;;;;;;13.73;7.38;;;12.30;96.70;;;;;;4927613;29;20182;-66
2024/02/22 08:52:23;;;;;;;14.77;7.43;;;12.40;96.70;;;;;;4927814;29;20051;-66
2024/02/22 08:54:54;;;;;;;12.73;6.47;;;12.50;96.70;;;;;;4912907;29;20059;-66
2024/02/22 08:57:24;;;;;;;10.50;6.32;;;12.50;96.70;;;;;;4941739;29;20748;-66
2024/02/22 08:59:55;;;;;;;12.63;6.65;;;12.60;96.70;;;;;;4928621;29;20695;-66
2024/02/22 09:02:24;;;;;;;11.15;6.15;;;12.70;96.70;;;;;;4943687;29;20043;-66
2024/02/22 09:04:54;;;;;;;10.07;6.15;;;12.70;96.70;;;;;;4944926;29;20047;-66
2024/02/22 09:07:24;;;;;;;9.38;6.43;;;12.80;96.70;;;;;;4925497;29;20084;-66
2024/02/22 09:09:53;;;;;;;8.98;6.68;;;12.80;96.70;;;;;;4941684;29;20078;-65
2024/02/22 09:12:21;;;;;;;9.27;5.95;;;12.80;96.70;;;;;;4925779;29;20054;-66
2024/02/22 09:14:52;;;;;;;8.70;6.30;;;12.90;96.70;;;;;;4944154;28;20054;-66
2024/02/22 09:17:22;;;;;;;7.95;5.88;;;13.00;96.70;;;;;;4928962;29;20052;-66
2024/02/22 09:19:53;;;;;;;9.73;7.47;;;13.00;96.70;;;;;;4944580;29;20398;-66
2024/02/22 09:22:23;;;;;;;11.82;7.93;;;13.10;96.70;;;;;;4943934;29;20297;-66
2024/02/22 09:24:53;;;;;;;9.82;6.90;;;13.10;96.70;;;;;;4928599;29;20575;-66
2024/02/22 09:27:25;;;;;;;9.77;6.78;;;13.10;96.70;;;;;;4936168;29;20059;-66
2024/02/22 09:29:58;;;;;;;8.40;6.25;;;13.20;96.70;;;;;;4929295;29;20051;-66
2024/02/22 09:32:29;;;;;;;10.93;6.50;;;13.30;96.70;;;;;;4928415;29;20075;-66
2024/02/22 09:34:58;;;;;;;15.02;7.03;;;13.30;96.70;;;;;;4927438;29;20066;-66
2024/02/22 09:37:27;;;;;;;13.15;6.95;;;13.40;96.70;;;;;;4918846;29;20059;-66
2024/02/22 09:39:57;;;;;;;7.70;6.85;;;13.40;96.70;;;;;;4939254;29;20068;-66
2024/02/22 09:42:28;;;;;;;10.75;6.68;;;13.50;96.70;;;;;;4943949;29;20505;-66
2024/02/22 09:44:58;;;;;;;9.98;6.82;;;13.60;96.70;;;;;;4928805;29;20413;-66
2024/02/22 09:47:28;;;;;;;11.88;7.07;;;13.60;96.70;;;;;;4944158;29;20107;-66
2024/02/22 09:50:00;;;;;;;14.38;7.22;;;13.60;96.70;;;;;;4928260;29;20058;-66
2024/02/22 09:52:28;;;;;;;10.85;7.22;;;13.70;96.70;;;;;;4928080;29;20047;-66
2024/02/22 09:54:57;;;;;;;11.52;7.65;;;13.70;96.70;;;;;;4920988;29;20055;-66
2024/02/22 09:57:29;;;;;;;12.02;8.48;;;13.80;96.70;;;;;;4933318;29;20086;-66
2024/02/22 10:00:00;;;;;;;15.48;10.85;;;13.80;96.70;;;;;;4944332;29;20051;-66
2024/02/22 10:02:46;;;;;;;17.30;12.32;;;13.70;96.70;;;;;;4942559;29;20095;-66
2024/02/22 10:05:18;;;;;;;18.67;12.35;;;13.70;96.70;;;;;;4927724;29;20052;-66
2024/02/22 10:07:47;;;;;;;16.45;11.57;;;13.90;96.70;;;;;;4927658;29;20056;-66
2024/02/22 10:10:27;;;;;;;17.58;11.80;;;13.90;96.70;;;;;;4942632;29;20535;-66
2024/02/22 10:12:57;;;;;;;18.85;12.02;;;14.00;96.70;;;;;;4927521;29;20159;-66
2024/02/22 10:15:30;;;;;;;18.23;11.75;;;14.00;96.70;;;;;;4930651;29;20122;-66
2024/02/22 10:18:00;;;;;;;18.48;12.23;;;14.10;96.70;;;;;;4916744;29;20513;-66
2024/02/22 10:20:32;;;;;;;16.27;11.07;;;14.30;96.70;;;;;;4927081;29;20075;-66
2024/02/22 10:23:06;;;;;;;15.13;10.25;;;14.50;96.70;;;;;;4920540;29;20056;-66
2024/02/22 10:25:36;;;;;;;12.45;10.02;;;14.60;96.70;;;;;;4930050;29;20146;-66
2024/02/22 10:28:08;;;;;;;15.85;9.10;;;14.60;96.70;;;;;;4932556;29;20562;-66
2024/02/22 10:30:40;;;;;;;15.65;8.75;;;14.60;96.70;;;;;;4930053;29;20051;-66
2024/02/22 10:33:12;;;;;;;12.82;8.27;;;14.60;96.70;;;;;;4924135;29;20115;-66
2024/02/22 10:35:44;;;;;;;12.40;8.45;;;14.80;96.70;;;;;;4918191;28;20587;-66
2024/02/22 10:38:15;;;;;;;13.18;8.55;;;14.90;96.70;;;;;;4952467;28;20118;-66
2024/02/22 10:40:45;;;;;;;16.05;8.38;;;15.10;96.70;;;;;;4948857;29;20424;-66
2024/02/22 10:43:15;;;;;;;14.13;7.68;;;15.20;96.70;;;;;;4948775;29;20080;-66
2024/02/22 10:45:44;;;;;;;14.50;9.50;;;15.40;96.70;;;;;;4932931;29;20055;-66
2024/02/22 10:48:19;;;;;;;14.45;8.45;;;15.50;96.70;;;;;;4932915;29;20059;-66
2024/02/22 10:50:49;;;;;;;17.00;8.13;;;15.50;96.70;;;;;;4946335;28;20052;-66
2024/02/22 10:53:19;;;;;;;14.48;8.77;;;15.70;96.70;;;;;;4932019;29;20135;-66
2024/02/22 10:55:51;;;;;;;14.95;8.15;;;15.80;96.70;;;;;;4947993;28;20055;-66
2024/02/22 10:58:25;;;;;;;16.70;8.10;;;15.90;96.70;;;;;;4933100;29;20553;-66
2024/02/22 11:00:57;;;;;;;14.07;7.35;;;16.00;96.70;;;;;;4913562;29;20055;-66
2024/02/22 11:03:31;;;;;;;14.73;6.50;;;16.10;96.70;;;;;;4930457;29;20059;-66
2024/02/22 11:06:04;;;;;;;14.57;7.32;;;16.00;96.70;;;;;;4946314;29;20051;-66
2024/02/22 11:08:35;;;;;;;12.23;6.75;;;16.00;96.70;;;;;;4946089;29;20059;-66
2024/02/22 11:11:06;;;;;;;17.27;8.93;;;16.00;96.70;;;;;;4946449;29;20098;-66
2024/02/22 11:13:37;;;;;;;12.02;7.15;;;16.00;96.70;;;;;;4915070;29;20063;-67
2024/02/22 11:16:16;;;;;;;15.23;7.53;;;15.90;96.70;;;;;;4915277;29;20051;-67
2024/02/22 11:18:49;;;;;;;11.07;6.40;;;15.90;96.70;;;;;;4930775;29;20443;-66
2024/02/22 11:21:20;;;;;;;13.18;6.82;;;15.90;96.70;;;;;;4931113;29;20095;-66
2024/02/22 11:23:49;;;;;;;12.35;6.65;;;15.80;96.70;;;;;;4931426;29;20094;-66
2024/02/22 11:26:19;;;;;;;14.80;7.13;;;15.80;96.70;;;;;;4914413;29;20044;-66
2024/02/22 11:28:53;;;;;;;9.50;4.90;;;15.80;96.70;;;;;;4929947;29;20811;-66
2024/02/22 11:31:24;;;;;;;11.98;6.55;;;15.70;96.70;;;;;;4946214;29;20141;-67
2024/02/22 11:33:57;;;;;;;8.00;4.30;;;15.70;96.70;;;;;;4914502;29;20152;-66
2024/02/22 11:36:29;;;;;;;6.07;2.20;;;15.80;96.70;;;;;;4944433;28;20066;-66
2024/02/22 11:38:59;;;;;;;4.90;2.47;;;15.70;96.70;;;;;;4925258;29;20150;-66
2024/02/22 11:41:31;;;;;;;3.60;1.77;;;15.70;96.70;;;;;;4945609;29;20052;-66
2024/02/22 11:44:03;;;;;;;4.00;2.08;;;15.70;96.70;;;;;;4945714;29;20075;-66
2024/02/22 11:46:36;;;;;;;3.75;1.85;;;15.70;96.70;;;;;;4931972;29;20052;-66
2024/02/22 11:49:09;;;;;;;4.72;1.80;;;15.70;96.70;;;;;;4937972;29;20056;-66
2024/02/22 11:51:43;;;;;;;4.70;2.22;;;15.70;96.70;;;;;;4929877;29;20055;-66
2024/02/22 11:54:16;;;;;;;4.80;2.50;;;15.80;96.70;;;;;;4914589;29;20543;-66
2024/02/22 11:56:49;;;;;;;5.13;2.30;;;15.80;96.70;;;;;;4930079;29;20059;-67
2024/02/22 11:59:19;;;;;;;3.55;1.85;;;15.90;96.70;;;;;;4914883;29;20056;-66
2024/02/22 12:01:49;;;;;;;4.68;2.50;;;15.90;96.70;;;;;;4929299;29;20059;-66
2024/02/22 12:04:21;;;;;;;5.75;2.05;;;16.00;96.70;;;;;;4929627;29;20063;-68
2024/02/22 12:06:51;;;;;;;4.18;2.20;;;16.10;96.70;;;;;;4913590;29;20151;-65
2024/02/22 12:09:20;;;;;;;4.53;2.08;;;16.10;96.70;;;;;;4928610;29;20051;-65
2024/02/22 12:11:49;;;;;;;4.35;2.10;;;16.00;96.70;;;;;;4926254;29;20048;-65
2024/02/22 12:14:19;;;;;;;4.88;2.10;;;16.00;96.70;;;;;;4945310;29;20131;-65
2024/02/22 12:16:49;;;;;;;4.18;2.08;;;16.10;96.70;;;;;;4929308;29;20048;-64
2024/02/22 12:19:21;;;;;;;5.13;2.70;;;16.10;96.70;;;;;;4927527;29;20444;-65
2024/02/22 12:21:50;;;;;;;4.50;2.67;;;16.00;96.70;;;;;;4944374;29;20584;-65
2024/02/22 12:24:21;;;;;;;5.05;2.10;;;15.90;96.70;;;;;;4929171;29;20094;-65
2024/02/22 12:26:53;;;;;;;2.88;2.17;;;16.00;96.70;;;;;;4944379;29;20059;-65
2024/02/22 12:29:22;;;;;;;3.70;1.85;;;15.90;96.70;;;;;;4945307;29;20056;-65
2024/02/22 12:32:01;;;;;;;5.07;1.88;;;15.90;96.70;;;;;;4947381;29;20051;-65
2024/02/22 12:34:32;;;;;;;4.35;2.10;;;15.90;96.70;;;;;;4937892;29;21164;-65
2024/02/22 12:37:00;;;;;;;3.92;2.22;;;15.80;96.70;;;;;;4928813;29;20043;-66
2024/02/22 12:39:29;;;;;;;5.88;2.40;;;15.80;96.70;;;;;;4929842;29;20061;-65
2024/02/22 12:41:59;;;;;;;3.05;2.05;;;15.90;96.70;;;;;;4928360;29;20052;-65
2024/02/22 12:44:28;;;;;;;4.43;2.10;;;15.90;96.70;;;;;;4927759;29;20044;-64
2024/02/22 12:47:00;;;;;;;3.15;1.95;;;15.90;96.70;;;;;;4933710;29;20052;-65
2024/02/22 12:49:32;;;;;;;3.65;1.80;;;15.90;96.70;;;;;;4927969;29;20102;-64
2024/02/22 12:52:02;;;;;;;3.40;1.90;;;16.00;96.70;;;;;;4927337;29;20513;-64
2024/02/22 12:54:33;;;;;;;7.13;2.33;;;16.00;96.70;;;;;;4928675;29;20600;-65
2024/02/22 12:57:01;;;;;;;2.92;2.03;;;16.10;96.70;;;;;;4912140;29;20062;-65
2024/02/22 12:59:31;;;;;;;4.65;2.10;;;16.10;96.70;;;;;;4912489;29;20051;-65
2024/02/22 13:02:03;;;;;;;3.35;2.17;;;16.20;96.70;;;;;;4912860;29;20665;-65
2024/02/22 13:04:33;;;;;;;2.92;1.77;;;16.20;96.70;;;;;;4912726;29;20717;-64